Time;durP1;ratioP1;P1;durP2;ratioP2;P2;SDS_P1;SDS_P2;PMS_P1;PMS_P2;Temp;Humidity;BMP_temperature;BMP_pressure;BME280_temperature;BME280_humidity;BME280_pressure;Samples;Min_cycle;Max_cycle;Signal;HPM_P1;HPM_P2
2024/03/21 00:01:50;;;;;;;2.88;1.42;;;15.60;97.40;;;;;;4134110;28;20525;-65
2024/03/21 00:03:51;;;;;;;3.50;1.20;;;15.60;97.30;;;;;;4134437;28;20050;-60
2024/03/21 00:05:53;;;;;;;1.55;0.73;;;15.50;97.50;;;;;;4134050;28;20042;-56
2024/03/21 00:07:56;;;;;;;2.72;1.65;;;15.40;97.60;;;;;;4132013;28;20050;-57
2024/03/21 00:09:57;;;;;;;4.22;1.42;;;15.40;97.60;;;;;;4132612;28;20058;-56
2024/03/21 00:11:59;;;;;;;4.18;1.95;;;15.50;97.90;;;;;;4132209;28;20539;-56
2024/03/21 00:14:00;;;;;;;1.92;1.40;;;15.50;97.80;;;;;;4131417;28;20050;-56
2024/03/21 00:16:05;;;;;;;4.80;1.70;;;15.50;97.80;;;;;;4117257;28;20046;-56
2024/03/21 00:18:08;;;;;;;2.20;0.93;;;15.50;97.90;;;;;;4132789;28;20056;-56
2024/03/21 00:20:10;;;;;;;2.75;1.00;;;15.40;98.00;;;;;;4133627;28;20433;-55
2024/03/21 00:22:11;;;;;;;32.58;2.63;;;15.50;98.10;;;;;;4116794;28;20054;-55
2024/03/21 00:24:16;;;;;;;4.82;1.00;;;15.50;98.00;;;;;;4133045;28;20104;-56
2024/03/21 00:26:17;;;;;;;4.82;1.70;;;15.50;98.20;;;;;;4132489;28;20445;-56
2024/03/21 00:28:18;;;;;;;2.10;1.33;;;15.50;97.80;;;;;;4132317;28;20114;-57
2024/03/21 00:30:20;;;;;;;3.88;1.10;;;15.50;98.20;;;;;;4132285;28;20540;-55
2024/03/21 00:32:21;;;;;;;2.00;1.33;;;15.50;98.20;;;;;;4132489;28;20054;-55
2024/03/21 00:34:22;;;;;;;14.82;2.20;;;15.50;98.20;;;;;;4132522;28;20378;-55
2024/03/21 00:36:24;;;;;;;3.90;1.48;;;15.50;98.30;;;;;;4115803;28;20069;-55
2024/03/21 00:38:25;;;;;;;2.70;1.30;;;15.50;98.30;;;;;;4132002;28;20046;-56
2024/03/21 00:40:28;;;;;;;2.35;1.10;;;15.50;98.20;;;;;;4132202;28;20051;-55
2024/03/21 00:42:29;;;;;;;2.50;1.38;;;15.50;98.40;;;;;;4132073;28;20101;-56
2024/03/21 00:44:30;;;;;;;1.92;1.33;;;15.50;98.40;;;;;;4132379;28;20052;-56
2024/03/21 00:46:33;;;;;;;3.42;1.60;;;15.50;98.50;;;;;;4131684;28;20050;-56
2024/03/21 00:48:35;;;;;;;2.70;1.42;;;15.50;98.40;;;;;;4131570;28;20046;-56
2024/03/21 00:50:37;;;;;;;4.72;2.47;;;15.50;98.40;;;;;;4131021;28;20068;-56
2024/03/21 00:52:39;;;;;;;1.67;1.10;;;15.50;98.40;;;;;;4131750;28;20072;-55
2024/03/21 00:54:41;;;;;;;4.43;1.00;;;15.50;98.30;;;;;;4131476;28;20052;-56
2024/03/21 00:56:44;;;;;;;2.28;0.90;;;15.50;98.50;;;;;;4131406;28;20069;-56
2024/03/21 00:58:45;;;;;;;1.65;0.93;;;15.40;98.30;;;;;;4131456;28;20431;-56
2024/03/21 01:00:46;;;;;;;1.70;1.15;;;15.40;98.40;;;;;;4131640;28;20046;-56
2024/03/21 01:02:47;;;;;;;4.18;0.98;;;15.30;98.80;;;;;;4131611;28;20529;-57
2024/03/21 01:04:50;;;;;;;1.50;1.30;;;15.30;98.70;;;;;;4131281;28;20050;-56
2024/03/21 01:06:52;;;;;;;1.70;0.88;;;15.30;98.90;;;;;;4132101;28;20054;-56
2024/03/21 01:08:53;;;;;;;109.32;3.10;;;15.30;98.80;;;;;;4133027;28;20046;-55
2024/03/21 01:10:54;;;;;;;2.35;1.50;;;15.20;98.90;;;;;;4131395;28;20042;-56
2024/03/21 01:12:57;;;;;;;2.33;1.30;;;15.20;99.00;;;;;;4115437;28;20502;-56
2024/03/21 01:14:58;;;;;;;1.98;1.15;;;15.20;99.00;;;;;;4131484;28;20100;-55
2024/03/21 01:17:00;;;;;;;2.47;0.80;;;15.10;99.10;;;;;;4131218;28;20054;-56
2024/03/21 01:19:01;;;;;;;1.77;1.23;;;15.20;99.40;;;;;;4130980;28;20081;-56
2024/03/21 01:21:04;;;;;;;3.45;1.05;;;15.20;99.20;;;;;;4130902;28;20053;-57
2024/03/21 01:23:05;;;;;;;3.17;1.35;;;15.10;99.30;;;;;;4130941;28;20050;-55
2024/03/21 01:25:07;;;;;;;1.08;0.75;;;15.10;99.40;;;;;;4131012;28;20046;-56
2024/03/21 01:27:08;;;;;;;3.40;1.42;;;15.00;99.40;;;;;;4131075;28;20046;-55
2024/03/21 01:29:11;;;;;;;2.60;0.95;;;15.10;99.50;;;;;;4130788;28;20054;-56
2024/03/21 01:31:17;;;;;;;3.80;2.22;;;15.00;99.60;;;;;;4114828;28;20057;-57
2024/03/21 01:33:18;;;;;;;1.95;1.15;;;15.00;99.50;;;;;;4130678;28;20054;-55
2024/03/21 01:35:20;;;;;;;1.67;1.23;;;15.00;99.60;;;;;;4130723;28;20054;-55
2024/03/21 01:37:21;;;;;;;1.13;0.90;;;14.90;99.90;;;;;;4130798;28;20052;-56
2024/03/21 01:39:23;;;;;;;2.60;1.17;;;14.90;99.70;;;;;;4130933;28;20046;-55
2024/03/21 01:41:25;;;;;;;1.40;0.70;;;14.90;99.70;;;;;;4130767;28;20193;-57
2024/03/21 01:43:26;;;;;;;1.95;1.00;;;14.80;99.70;;;;;;4131065;28;20050;-55
2024/03/21 01:45:31;;;;;;;5.53;1.58;;;14.80;99.90;;;;;;4130882;28;20062;-56
2024/03/21 01:47:33;;;;;;;2.10;0.93;;;14.90;99.90;;;;;;4130390;28;20053;-56
2024/03/21 01:49:37;;;;;;;4.15;1.30;;;14.80;99.70;;;;;;4131035;28;20060;-56
2024/03/21 01:51:40;;;;;;;0.90;0.70;;;14.80;99.70;;;;;;4130856;28;20061;-56
2024/03/21 01:53:42;;;;;;;1.27;0.90;;;14.70;99.90;;;;;;4131489;28;20121;-56
2024/03/21 01:55:44;;;;;;;1.63;1.30;;;14.70;99.90;;;;;;4131152;28;20050;-56
2024/03/21 01:57:46;;;;;;;1.17;0.88;;;14.70;99.90;;;;;;4130670;28;20054;-57
2024/03/21 01:59:47;;;;;;;1.25;1.05;;;14.70;99.90;;;;;;4130545;28;20068;-55
2024/03/21 02:01:52;;;;;;;2.10;1.00;;;14.60;99.90;;;;;;4114374;28;20055;-56
2024/03/21 02:03:55;;;;;;;1.23;0.90;;;14.60;99.90;;;;;;4130316;28;20058;-56
2024/03/21 02:05:56;;;;;;;3.03;1.67;;;14.50;99.90;;;;;;4130932;28;20042;-56
2024/03/21 02:07:58;;;;;;;0.93;0.80;;;14.50;99.90;;;;;;4130872;28;20058;-57
2024/03/21 02:09:59;;;;;;;1.80;0.90;;;14.40;99.90;;;;;;4133210;28;20050;-58
2024/03/21 02:12:06;;;;;;;1.25;1.15;;;14.50;99.90;;;;;;4132770;28;20097;-55
2024/03/21 02:14:11;;;;;;;0.77;0.77;;;14.40;99.90;;;;;;4132372;28;20050;-57
2024/03/21 02:16:13;;;;;;;1.20;0.90;;;14.30;99.90;;;;;;4130876;28;20568;-55
2024/03/21 02:18:15;;;;;;;0.93;0.70;;;14.30;99.90;;;;;;4130345;28;20057;-56
2024/03/21 02:20:17;;;;;;;0.95;0.75;;;14.30;99.90;;;;;;4130643;28;20049;-56
2024/03/21 02:22:37;;;;;;;2.92;0.98;;;14.20;99.90;;;;;;4130332;28;20060;-56
2024/03/21 02:24:39;;;;;;;2.38;1.05;;;14.20;99.90;;;;;;4130561;28;20065;-56
2024/03/21 02:26:40;;;;;;;0.80;0.80;;;14.30;99.90;;;;;;4130545;28;20064;-55
2024/03/21 02:28:41;;;;;;;2.65;1.02;;;14.20;99.90;;;;;;4130226;28;20046;-57
2024/03/21 02:30:47;;;;;;;0.98;0.90;;;14.20;99.90;;;;;;4130159;28;20508;-56
2024/03/21 02:32:48;;;;;;;1.85;1.17;;;14.20;99.90;;;;;;4130219;28;20070;-56
2024/03/21 02:34:49;;;;;;;1.00;0.80;;;14.10;99.90;;;;;;4129873;28;20057;-57
2024/03/21 02:36:51;;;;;;;2.28;0.85;;;14.10;99.90;;;;;;4132275;28;20056;-57
2024/03/21 02:38:54;;;;;;;1.33;0.60;;;14.10;99.90;;;;;;4133988;28;20056;-56
2024/03/21 02:40:55;;;;;;;0.98;0.50;;;14.10;99.90;;;;;;4133917;28;20046;-63
2024/03/21 02:42:56;;;;;;;8.52;0.80;;;14.10;99.90;;;;;;4134339;28;20054;-55
2024/03/21 02:44:58;;;;;;;0.68;0.60;;;14.10;99.90;;;;;;4133965;28;20050;-56
2024/03/21 02:46:59;;;;;;;0.80;0.70;;;14.10;99.90;;;;;;4133757;28;20428;-56
2024/03/21 02:49:00;;;;;;;2.10;1.15;;;14.00;99.90;;;;;;4133678;28;20054;-56
2024/03/21 02:51:02;;;;;;;2.65;1.13;;;14.00;99.90;;;;;;4133423;28;20047;-61
2024/03/21 02:53:04;;;;;;;6.20;0.70;;;14.10;99.90;;;;;;4134872;28;20047;-55
2024/03/21 02:55:07;;;;;;;1.30;0.90;;;14.00;99.90;;;;;;4135057;28;20065;-55
2024/03/21 02:57:10;;;;;;;1.25;0.80;;;14.00;99.90;;;;;;4117222;28;20557;-61
2024/03/21 02:59:12;;;;;;;2.08;0.63;;;14.00;99.90;;;;;;4133466;28;20062;-56
2024/03/21 03:01:13;;;;;;;1.25;0.65;;;14.00;99.90;;;;;;4116976;28;20544;-56
2024/03/21 03:03:14;;;;;;;1.38;0.70;;;14.00;99.90;;;;;;4133308;28;20053;-55
2024/03/21 03:05:17;;;;;;;1.10;0.60;;;13.90;99.90;;;;;;4117246;28;20483;-56
2024/03/21 03:07:18;;;;;;;2.13;0.70;;;13.90;99.90;;;;;;4133341;28;20054;-56
2024/03/21 03:09:20;;;;;;;2.05;0.80;;;13.90;99.90;;;;;;4133742;28;20432;-62
2024/03/21 03:11:22;;;;;;;1.17;1.08;;;13.90;99.90;;;;;;4133708;28;20060;-55
2024/03/21 03:13:24;;;;;;;1.15;0.80;;;13.90;99.90;;;;;;4133609;28;20046;-56
2024/03/21 03:15:25;;;;;;;0.73;0.50;;;13.90;99.90;;;;;;4133286;28;20056;-55
2024/03/21 03:17:26;;;;;;;2.95;0.70;;;13.80;99.90;;;;;;4133553;28;20464;-55
2024/03/21 03:19:28;;;;;;;3.85;1.13;;;13.80;99.90;;;;;;4116929;28;20055;-55
2024/03/21 03:21:29;;;;;;;0.88;0.57;;;13.70;99.90;;;;;;4132845;28;20064;-55
2024/03/21 03:23:32;;;;;;;1.58;0.93;;;13.80;99.90;;;;;;4116948;28;20524;-56
2024/03/21 03:25:33;;;;;;;1.00;0.57;;;13.90;99.90;;;;;;4132811;28;20046;-56
2024/03/21 03:27:35;;;;;;;1.55;0.75;;;13.80;99.90;;;;;;4116894;28;20061;-55
2024/03/21 03:29:37;;;;;;;1.73;1.05;;;13.80;99.90;;;;;;4116298;28;20384;-55
2024/03/21 03:31:41;;;;;;;1.05;0.70;;;13.80;99.90;;;;;;4132813;28;20502;-56
2024/03/21 03:36:02;;;;;;;1.05;0.98;;;13.80;99.90;;;;;;4132665;28;20050;-55
2024/03/21 03:38:04;;;;;;;0.88;0.50;;;13.80;99.90;;;;;;4132588;28;20508;-56
2024/03/21 03:40:09;;;;;;;3.83;1.85;;;13.80;99.90;;;;;;4132706;28;20073;-57
2024/03/21 03:42:10;;;;;;;2.72;0.95;;;13.80;99.90;;;;;;4132397;28;20064;-56
2024/03/21 03:44:15;;;;;;;0.85;0.75;;;13.70;99.90;;;;;;4132092;28;20057;-56
2024/03/21 03:46:16;;;;;;;1.20;0.70;;;13.70;99.90;;;;;;4132528;28;20052;-56
2024/03/21 03:48:17;;;;;;;0.60;0.60;;;13.60;99.90;;;;;;4130976;28;20046;-56
2024/03/21 03:50:19;;;;;;;1.00;0.60;;;13.60;99.90;;;;;;4132206;28;20054;-56
2024/03/21 03:52:21;;;;;;;2.35;0.50;;;13.50;99.90;;;;;;4132581;28;20536;-56
2024/03/21 03:54:22;;;;;;;1.50;0.90;;;13.60;99.90;;;;;;4132485;28;20050;-56
2024/03/21 03:56:23;;;;;;;4.72;1.77;;;13.50;99.90;;;;;;4131982;28;20056;-56
2024/03/21 03:58:26;;;;;;;3.47;1.63;;;13.60;99.90;;;;;;4131848;28;20050;-56
2024/03/21 04:00:28;;;;;;;0.68;0.68;;;13.60;99.90;;;;;;4132332;28;20069;-56
2024/03/21 04:02:31;;;;;;;0.47;0.47;;;13.60;99.90;;;;;;4116348;28;20051;-55
2024/03/21 04:04:32;;;;;;;1.40;0.82;;;13.50;99.90;;;;;;4133009;28;20050;-58
2024/03/21 04:06:34;;;;;;;0.95;0.57;;;13.50;99.90;;;;;;4132391;28;20458;-55
2024/03/21 04:08:35;;;;;;;0.80;0.55;;;13.50;99.90;;;;;;4132360;28;20058;-56
2024/03/21 04:10:36;;;;;;;0.50;0.50;;;13.50;99.90;;;;;;4132302;28;20053;-55
2024/03/21 04:12:40;;;;;;;1.30;0.70;;;13.50;99.90;;;;;;4131846;28;20112;-55
2024/03/21 04:14:41;;;;;;;2.72;0.95;;;13.50;99.90;;;;;;4132311;28;20050;-56
2024/03/21 04:16:44;;;;;;;0.52;0.52;;;13.50;99.90;;;;;;4115865;28;20051;-55
2024/03/21 04:18:45;;;;;;;1.30;1.10;;;13.50;99.90;;;;;;4131947;28;20050;-56
2024/03/21 04:20:48;;;;;;;1.02;0.80;;;13.50;99.90;;;;;;4132178;28;20057;-56
2024/03/21 04:22:49;;;;;;;3.15;0.98;;;13.40;99.90;;;;;;4131889;28;20050;-55
2024/03/21 04:24:51;;;;;;;0.65;0.65;;;13.40;99.90;;;;;;4132114;28;20053;-55
2024/03/21 04:26:53;;;;;;;2.08;0.70;;;13.30;99.90;;;;;;4131838;28;20572;-56
2024/03/21 04:28:55;;;;;;;1.92;0.75;;;13.30;99.90;;;;;;4131796;28;20437;-56
2024/03/21 04:30:56;;;;;;;0.80;0.60;;;13.40;99.90;;;;;;4132123;28;20046;-55
2024/03/21 04:32:59;;;;;;;0.75;0.57;;;13.30;99.90;;;;;;4131930;28;20064;-55
2024/03/21 04:35:00;;;;;;;1.33;0.40;;;13.40;99.90;;;;;;4132485;28;20060;-57
2024/03/21 04:37:02;;;;;;;0.70;0.70;;;13.30;99.90;;;;;;4132702;28;20433;-56
2024/03/21 04:39:03;;;;;;;1.00;0.60;;;13.30;99.90;;;;;;4133895;28;20401;-57
2024/03/21 04:41:04;;;;;;;0.50;0.40;;;13.30;99.90;;;;;;4133903;28;20046;-56
2024/03/21 04:43:06;;;;;;;0.70;0.50;;;13.30;99.90;;;;;;4132788;28;20073;-57
2024/03/21 04:45:08;;;;;;;1.23;0.43;;;13.30;99.90;;;;;;4132279;28;20126;-56
2024/03/21 04:47:10;;;;;;;1.13;0.43;;;13.30;99.90;;;;;;4131627;28;20061;-55
2024/03/21 04:49:12;;;;;;;0.63;0.60;;;13.20;99.90;;;;;;4131680;28;20497;-55
2024/03/21 04:51:14;;;;;;;0.75;0.50;;;13.20;99.90;;;;;;4133974;28;20069;-56
2024/03/21 04:53:15;;;;;;;1.98;0.88;;;13.10;99.90;;;;;;4131570;28;20051;-55
2024/03/21 04:55:17;;;;;;;3.13;0.50;;;13.10;99.90;;;;;;4131236;28;20042;-55
2024/03/21 04:57:18;;;;;;;1.85;0.70;;;13.10;99.90;;;;;;4131157;28;20056;-56
2024/03/21 04:59:25;;;;;;;1.67;0.88;;;13.10;99.90;;;;;;4131275;28;20050;-56
2024/03/21 05:01:26;;;;;;;2.95;0.98;;;13.20;99.90;;;;;;4131682;28;20129;-55
2024/03/21 05:03:28;;;;;;;2.10;0.63;;;13.20;99.80;;;;;;4131267;28;20047;-56
2024/03/21 05:05:30;;;;;;;3.08;1.05;;;13.20;99.90;;;;;;4131242;28;20062;-57
2024/03/21 05:07:32;;;;;;;0.52;0.50;;;13.20;99.90;;;;;;4131515;28;20050;-56
2024/03/21 05:09:34;;;;;;;3.60;0.65;;;13.20;99.80;;;;;;4131534;28;20069;-57
2024/03/21 05:11:35;;;;;;;0.98;0.57;;;13.20;99.90;;;;;;4130848;28;20529;-56
2024/03/21 05:13:37;;;;;;;2.05;0.68;;;13.20;99.70;;;;;;4130952;28;20050;-55
2024/03/21 05:15:46;;;;;;;2.88;0.60;;;13.10;99.90;;;;;;4114588;28;20055;-56
2024/03/21 05:17:48;;;;;;;1.58;0.75;;;13.10;99.90;;;;;;4131311;28;20046;-56
2024/03/21 05:19:49;;;;;;;1.55;0.57;;;13.10;99.90;;;;;;4132565;28;20054;-59
2024/03/21 05:21:52;;;;;;;1.98;0.63;;;13.10;99.90;;;;;;4133046;28;20152;-58
2024/03/21 05:23:53;;;;;;;2.85;1.25;;;13.10;99.90;;;;;;4116778;28;20057;-60
2024/03/21 05:25:54;;;;;;;0.63;0.50;;;13.10;99.90;;;;;;4132808;28;20056;-58
2024/03/21 05:27:56;;;;;;;0.60;0.40;;;13.10;99.90;;;;;;4131971;28;20050;-56
2024/03/21 05:29:57;;;;;;;1.52;0.55;;;13.00;99.90;;;;;;4132828;28;20054;-55
2024/03/21 05:31:58;;;;;;;0.45;0.45;;;13.00;99.90;;;;;;4131931;28;20054;-55
2024/03/21 05:34:00;;;;;;;1.25;0.50;;;12.90;99.90;;;;;;4131165;28;20406;-55
2024/03/21 05:36:01;;;;;;;1.02;0.60;;;12.90;99.90;;;;;;4131244;28;20050;-56
2024/03/21 05:38:04;;;;;;;0.95;0.50;;;12.90;99.90;;;;;;4131021;28;20046;-55
2024/03/21 05:40:08;;;;;;;1.48;1.38;;;12.90;99.90;;;;;;4131005;28;20050;-56
2024/03/21 05:42:10;;;;;;;2.33;0.50;;;12.80;99.90;;;;;;4130958;28;20047;-55
2024/03/21 05:44:11;;;;;;;1.48;0.60;;;12.70;99.90;;;;;;4131169;28;20046;-57
2024/03/21 05:46:13;;;;;;;1.85;0.60;;;12.70;99.90;;;;;;4130906;28;20502;-56
2024/03/21 05:48:14;;;;;;;1.40;0.70;;;12.60;99.90;;;;;;4130897;28;20072;-56
2024/03/21 05:50:16;;;;;;;3.33;1.88;;;12.60;99.90;;;;;;4130566;28;20042;-56
2024/03/21 05:52:17;;;;;;;0.75;0.75;;;12.60;99.90;;;;;;4130841;28;20513;-56
2024/03/21 05:54:20;;;;;;;1.88;1.05;;;12.50;99.90;;;;;;4130915;28;20054;-56
2024/03/21 05:56:21;;;;;;;2.58;0.75;;;12.50;99.90;;;;;;4115334;28;20077;-56
2024/03/21 05:58:23;;;;;;;1.02;0.77;;;12.50;99.90;;;;;;4131193;28;20504;-56
2024/03/21 06:00:24;;;;;;;0.70;0.60;;;12.50;99.90;;;;;;4131242;28;20050;-57
2024/03/21 06:02:25;;;;;;;0.60;0.50;;;12.60;99.90;;;;;;4130712;28;20450;-56
2024/03/21 06:04:27;;;;;;;2.28;0.80;;;12.70;99.90;;;;;;4130911;28;20561;-56
2024/03/21 06:06:28;;;;;;;0.55;0.55;;;12.70;99.90;;;;;;4130709;28;20057;-55
2024/03/21 06:08:30;;;;;;;1.80;0.80;;;12.60;99.90;;;;;;4130517;28;20046;-56
2024/03/21 06:10:33;;;;;;;2.58;1.35;;;12.70;99.90;;;;;;4129691;28;20050;-56
2024/03/21 06:12:34;;;;;;;7.18;1.05;;;12.70;99.90;;;;;;4130398;28;20062;-56
2024/03/21 06:14:35;;;;;;;1.58;1.35;;;12.70;99.90;;;;;;4130642;28;20057;-56
2024/03/21 06:16:37;;;;;;;0.82;0.75;;;12.60;99.90;;;;;;4135201;28;20046;-57
2024/03/21 06:18:39;;;;;;;0.45;0.45;;;12.60;99.90;;;;;;4130592;28;20054;-56
2024/03/21 06:20:41;;;;;;;0.40;0.40;;;12.70;99.90;;;;;;4131558;28;20128;-57
2024/03/21 06:22:43;;;;;;;0.73;0.60;;;12.70;99.90;;;;;;4131987;28;20057;-57
2024/03/21 06:24:45;;;;;;;3.30;0.70;;;12.70;99.90;;;;;;4133252;28;20050;-55
2024/03/21 06:26:47;;;;;;;1.58;0.73;;;12.70;99.90;;;;;;4131050;28;20050;-56
2024/03/21 06:28:49;;;;;;;3.20;0.43;;;12.70;99.90;;;;;;4130661;28;20058;-57
2024/03/21 06:30:50;;;;;;;1.52;0.60;;;12.70;99.80;;;;;;4130466;28;20042;-56
2024/03/21 06:32:53;;;;;;;1.30;1.17;;;12.80;99.90;;;;;;4130476;28;20050;-55
2024/03/21 06:34:54;;;;;;;0.82;0.60;;;12.80;99.90;;;;;;4130574;28;20054;-57
2024/03/21 06:36:55;;;;;;;2.85;1.33;;;12.80;99.90;;;;;;4130561;28;20533;-56
2024/03/21 06:38:58;;;;;;;1.17;0.60;;;12.80;99.90;;;;;;4130452;28;20085;-55
2024/03/21 06:40:59;;;;;;;0.68;0.50;;;12.90;99.90;;;;;;4130555;28;20065;-56
2024/03/21 06:43:02;;;;;;;1.48;1.25;;;12.90;99.90;;;;;;4130225;28;20460;-56
2024/03/21 06:45:04;;;;;;;2.10;1.05;;;12.80;99.90;;;;;;4130140;28;20414;-55
2024/03/21 06:47:06;;;;;;;6.32;0.70;;;12.90;99.90;;;;;;4130348;28;20054;-55
2024/03/21 06:49:09;;;;;;;0.57;0.55;;;12.90;99.90;;;;;;4130547;28;20048;-56
2024/03/21 06:51:10;;;;;;;1.25;0.40;;;12.90;99.90;;;;;;4114225;28;20050;-56
2024/03/21 06:53:11;;;;;;;0.73;0.55;;;12.90;99.70;;;;;;4130123;28;20509;-55
2024/03/21 06:55:13;;;;;;;2.08;0.82;;;12.90;99.80;;;;;;4130314;28;20061;-55
2024/03/21 06:57:15;;;;;;;3.20;0.60;;;12.90;99.90;;;;;;4129977;28;20039;-55
2024/03/21 06:59:17;;;;;;;0.93;0.50;;;12.90;99.90;;;;;;4130145;28;20050;-56
2024/03/21 07:01:20;;;;;;;1.38;0.63;;;12.90;99.60;;;;;;4129558;28;20387;-56
2024/03/21 07:03:21;;;;;;;3.72;0.60;;;12.90;99.80;;;;;;4129946;28;20062;-55
2024/03/21 07:05:24;;;;;;;1.40;0.75;;;12.90;99.90;;;;;;4130088;28;20050;-56
2024/03/21 07:07:25;;;;;;;3.72;1.80;;;13.00;99.90;;;;;;4129697;28;20055;-55
2024/03/21 07:09:27;;;;;;;2.15;0.75;;;12.90;99.90;;;;;;4129934;28;20046;-55
2024/03/21 07:11:28;;;;;;;6.18;1.08;;;12.90;99.80;;;;;;4130189;28;20050;-55
2024/03/21 07:13:29;;;;;;;2.60;0.85;;;13.00;99.90;;;;;;4129951;28;20066;-56
2024/03/21 07:15:32;;;;;;;1.55;0.82;;;13.00;99.80;;;;;;4131016;28;20046;-55
2024/03/21 07:17:34;;;;;;;2.35;0.93;;;13.00;99.40;;;;;;4130497;28;20492;-58
2024/03/21 07:19:35;;;;;;;0.77;0.60;;;13.10;99.50;;;;;;4130760;28;20567;-54
2024/03/21 07:21:36;;;;;;;1.15;1.00;;;13.10;99.40;;;;;;4130422;28;20058;-56
2024/03/21 07:23:39;;;;;;;13.00;1.25;;;13.20;99.60;;;;;;4133425;28;20058;-56
2024/03/21 07:25:40;;;;;;;2.15;0.90;;;13.20;99.40;;;;;;4133745;28;20055;-57
2024/03/21 07:27:43;;;;;;;2.67;1.13;;;13.30;99.30;;;;;;4117079;28;20077;-62
2024/03/21 07:29:44;;;;;;;2.08;0.80;;;13.30;99.10;;;;;;4133247;28;20050;-55
2024/03/21 07:31:47;;;;;;;2.83;1.60;;;13.30;98.70;;;;;;4132863;28;20061;-55
2024/03/21 07:33:51;;;;;;;2.65;1.27;;;13.60;98.60;;;;;;4132852;28;20050;-52
2024/03/21 07:35:56;;;;;;;1.60;0.80;;;14.00;98.40;;;;;;4132792;28;20440;-53
2024/03/21 07:37:59;;;;;;;2.10;0.93;;;14.30;97.70;;;;;;4132802;28;20050;-53
2024/03/21 07:40:02;;;;;;;3.47;0.82;;;14.30;97.10;;;;;;4132763;28;20504;-52
2024/03/21 07:42:05;;;;;;;1.95;1.02;;;14.70;96.90;;;;;;4132756;28;20046;-55
2024/03/21 07:44:08;;;;;;;0.85;0.60;;;14.90;96.70;;;;;;4132590;28;20565;-55
2024/03/21 07:46:09;;;;;;;3.25;1.77;;;15.30;96.40;;;;;;4132401;28;20069;-54
2024/03/21 07:48:12;;;;;;;2.28;1.42;;;15.50;95.70;;;;;;4132719;28;20101;-55
2024/03/21 07:50:13;;;;;;;1.83;0.88;;;15.80;95.40;;;;;;4131967;28;20054;-55
2024/03/21 07:52:14;;;;;;;2.85;0.93;;;16.20;95.50;;;;;;4132764;28;20157;-55
2024/03/21 07:54:16;;;;;;;1.73;0.93;;;16.40;95.00;;;;;;4132616;28;20050;-55
2024/03/21 07:56:17;;;;;;;3.30;2.30;;;16.60;94.70;;;;;;4132336;28;20060;-55
2024/03/21 07:58:19;;;;;;;1.42;1.20;;;16.80;94.90;;;;;;4132614;28;20069;-55
2024/03/21 08:00:20;;;;;;;2.85;1.67;;;16.80;94.20;;;;;;4132274;28;20064;-52
2024/03/21 08:02:22;;;;;;;2.75;1.45;;;16.70;93.90;;;;;;4132163;28;20050;-52
2024/03/21 08:04:24;;;;;;;6.10;1.85;;;16.60;94.10;;;;;;4132406;28;20046;-53
2024/03/21 08:06:26;;;;;;;2.95;1.45;;;16.70;94.40;;;;;;4131749;28;20061;-53
2024/03/21 08:08:27;;;;;;;3.53;1.17;;;16.70;94.40;;;;;;4116576;28;20062;-51
2024/03/21 08:10:28;;;;;;;4.97;1.15;;;16.80;94.00;;;;;;4118046;28;20051;-54
2024/03/21 08:12:29;;;;;;;2.17;0.75;;;16.70;93.90;;;;;;4133132;28;20426;-54
2024/03/21 08:14:31;;;;;;;4.10;1.20;;;16.90;94.00;;;;;;4116851;28;20097;-55
2024/03/21 08:16:32;;;;;;;2.95;1.38;;;17.10;93.30;;;;;;4132438;28;20089;-53
2024/03/21 08:18:34;;;;;;;3.83;0.93;;;17.20;93.30;;;;;;4132005;28;20060;-53
2024/03/21 08:20:36;;;;;;;2.15;0.88;;;17.50;93.70;;;;;;4131986;28;20425;-56
2024/03/21 08:22:38;;;;;;;1.15;0.70;;;17.60;92.80;;;;;;4131875;28;20050;-56
2024/03/21 08:24:39;;;;;;;2.42;1.20;;;17.60;92.60;;;;;;4131830;28;20502;-56
2024/03/21 08:26:40;;;;;;;2.88;0.90;;;17.60;92.20;;;;;;4131904;28;20046;-57
2024/03/21 08:28:42;;;;;;;3.70;1.25;;;17.60;92.20;;;;;;4115971;28;20054;-55
2024/03/21 08:30:45;;;;;;;1.40;0.70;;;17.50;92.40;;;;;;4115847;28;20499;-57
2024/03/21 08:32:46;;;;;;;2.58;1.15;;;17.50;92.60;;;;;;4131882;28;20075;-56
2024/03/21 08:34:48;;;;;;;3.08;0.98;;;17.50;92.70;;;;;;4131453;28;20054;-60
2024/03/21 08:36:50;;;;;;;2.50;0.82;;;17.50;92.90;;;;;;4117150;28;20624;-58
2024/03/21 08:38:52;;;;;;;1.85;1.25;;;17.40;92.40;;;;;;4133132;28;20046;-55
2024/03/21 08:40:54;;;;;;;2.10;1.17;;;17.20;93.10;;;;;;4132596;28;20054;-56
2024/03/21 08:42:55;;;;;;;1.15;0.80;;;17.20;93.00;;;;;;4131808;28;20058;-58
2024/03/21 08:44:58;;;;;;;3.25;1.42;;;17.00;93.30;;;;;;4131668;28;20059;-56
2024/03/21 08:46:59;;;;;;;2.55;1.60;;;17.00;93.50;;;;;;4131806;28;20062;-56
2024/03/21 08:49:01;;;;;;;4.70;1.92;;;17.10;93.30;;;;;;4131598;28;20050;-56
2024/03/21 08:51:03;;;;;;;8.52;1.00;;;17.10;93.30;;;;;;4131438;28;20493;-56
2024/03/21 08:53:06;;;;;;;3.20;0.93;;;17.10;93.40;;;;;;4131743;28;20486;-56
2024/03/21 08:55:08;;;;;;;1.10;1.00;;;17.10;93.40;;;;;;4131618;28;20055;-56
2024/03/21 08:57:09;;;;;;;1.05;0.75;;;17.00;93.50;;;;;;4131542;28;20060;-56
2024/03/21 08:59:10;;;;;;;1.98;1.10;;;16.90;93.80;;;;;;4131948;28;20149;-57
2024/03/21 09:01:12;;;;;;;3.30;1.58;;;16.90;93.30;;;;;;4132422;28;20478;-58
2024/03/21 09:03:14;;;;;;;2.05;1.17;;;16.90;93.80;;;;;;4131921;28;20474;-56
2024/03/21 09:05:16;;;;;;;1.77;1.13;;;17.00;93.80;;;;;;4131867;28;20054;-56
2024/03/21 09:07:17;;;;;;;2.65;1.23;;;16.90;93.60;;;;;;4132176;28;20408;-57
2024/03/21 09:09:21;;;;;;;2.75;1.48;;;16.70;93.60;;;;;;4132287;28;20060;-64
2024/03/21 09:11:23;;;;;;;1.70;1.23;;;16.50;93.80;;;;;;4132441;28;20053;-56
2024/03/21 09:13:24;;;;;;;1.63;0.98;;;16.80;94.30;;;;;;4132277;28;20053;-56
2024/03/21 09:15:26;;;;;;;1.02;0.77;;;16.70;94.10;;;;;;4132481;28;20524;-56
2024/03/21 09:17:30;;;;;;;2.22;1.35;;;16.80;94.10;;;;;;4131735;28;20052;-54
2024/03/21 09:19:31;;;;;;;2.25;1.20;;;16.80;94.00;;;;;;4131462;28;20046;-55
2024/03/21 09:21:33;;;;;;;1.35;1.25;;;16.90;94.10;;;;;;4131548;28;20064;-56
2024/03/21 09:23:34;;;;;;;2.55;1.15;;;17.00;93.80;;;;;;4131362;28;20054;-56
2024/03/21 09:25:37;;;;;;;2.80;1.10;;;17.00;93.70;;;;;;4131063;28;20061;-56
2024/03/21 09:27:38;;;;;;;4.97;1.60;;;17.00;93.90;;;;;;4130950;28;20057;-59
2024/03/21 09:29:42;;;;;;;7.93;1.25;;;16.90;94.10;;;;;;4131350;28;20054;-56
2024/03/21 09:31:44;;;;;;;2.55;1.13;;;16.90;93.50;;;;;;4131032;28;20424;-56
2024/03/21 09:33:45;;;;;;;2.22;1.15;;;17.00;93.90;;;;;;4131643;28;20042;-56
2024/03/21 09:35:55;;;;;;;1.30;1.00;;;17.00;93.70;;;;;;4131246;28;20057;-58
2024/03/21 09:37:56;;;;;;;2.53;1.25;;;17.00;93.70;;;;;;4130739;28;20054;-57
2024/03/21 09:39:58;;;;;;;1.45;0.90;;;17.10;93.70;;;;;;4130797;28;20042;-56
2024/03/21 09:42:01;;;;;;;3.13;1.15;;;17.10;93.70;;;;;;4130831;28;20054;-56
2024/03/21 09:44:02;;;;;;;3.15;1.60;;;17.10;93.70;;;;;;4130543;28;20054;-57
2024/03/21 09:46:04;;;;;;;5.28;2.10;;;17.10;93.30;;;;;;4130306;28;20068;-57
2024/03/21 09:48:08;;;;;;;2.22;1.27;;;17.10;93.20;;;;;;4130728;28;20054;-56
2024/03/21 09:50:11;;;;;;;2.63;1.20;;;16.90;93.30;;;;;;4130637;28;20058;-57
2024/03/21 09:52:13;;;;;;;2.42;1.60;;;17.00;93.30;;;;;;4098914;29;20451;-57
2024/03/21 09:54:14;;;;;;;4.68;1.00;;;17.10;93.70;;;;;;4115419;28;20062;-59
2024/03/21 09:56:16;;;;;;;1.45;1.10;;;17.10;93.30;;;;;;4115176;28;20069;-57
2024/03/21 09:58:19;;;;;;;2.45;0.77;;;17.10;93.60;;;;;;4098914;29;20048;-57
2024/03/21 10:00:21;;;;;;;2.45;0.85;;;17.30;93.80;;;;;;4114669;28;20054;-56
2024/03/21 10:02:22;;;;;;;1.45;0.90;;;17.30;93.50;;;;;;4114216;28;20055;-60
2024/03/21 10:04:24;;;;;;;3.88;1.45;;;17.20;93.30;;;;;;4098894;29;20464;-56
2024/03/21 10:06:25;;;;;;;1.65;0.90;;;17.30;93.80;;;;;;4114583;28;20046;-56
2024/03/21 10:08:26;;;;;;;0.82;0.80;;;17.30;94.30;;;;;;4114673;28;20054;-56
2024/03/21 10:10:28;;;;;;;4.75;1.38;;;17.50;93.70;;;;;;4102002;28;20077;-57
2024/03/21 10:12:30;;;;;;;3.28;1.27;;;17.70;93.40;;;;;;4098440;29;20047;-57
2024/03/21 10:14:33;;;;;;;15.75;2.97;;;17.60;92.70;;;;;;4096730;29;20047;-56
2024/03/21 10:16:34;;;;;;;4.10;1.38;;;17.50;92.50;;;;;;4081621;29;20047;-56
2024/03/21 10:18:35;;;;;;;2.75;1.83;;;17.60;92.40;;;;;;4098235;29;20061;-56
2024/03/21 10:20:37;;;;;;;3.78;1.65;;;17.60;92.40;;;;;;4098669;29;20047;-56
2024/03/21 10:22:44;;;;;;;3.25;1.27;;;17.60;92.60;;;;;;4097271;29;20056;-61
2024/03/21 10:24:51;;;;;;;4.65;2.10;;;17.60;92.50;;;;;;4082318;29;20056;-56
2024/03/21 10:26:53;;;;;;;1.70;1.60;;;17.60;92.60;;;;;;4082778;29;20051;-57
2024/03/21 10:28:54;;;;;;;4.03;1.17;;;17.50;92.60;;;;;;4082868;29;20508;-58
2024/03/21 10:30:57;;;;;;;2.97;1.50;;;17.50;92.60;;;;;;4091521;28;20046;-57
2024/03/21 10:33:00;;;;;;;0.95;0.85;;;17.50;92.80;;;;;;4098075;29;20131;-55
2024/03/21 10:35:04;;;;;;;4.95;1.17;;;17.70;92.70;;;;;;4081579;29;20069;-57
2024/03/21 10:37:07;;;;;;;3.75;1.35;;;17.70;92.40;;;;;;4097948;29;20057;-56